createdAt,value
2017-09-08T00:00:28.120Z,13.80
2017-09-08T00:03:00.048Z,9.10
2017-09-08T00:05:31.523Z,12.03
2017-09-08T00:08:03.696Z,9.93
2017-09-08T00:10:35.584Z,11.70
2017-09-08T00:13:07.322Z,13.47
2017-09-08T00:15:39.018Z,10.63
2017-09-08T00:18:13.146Z,7.53
2017-09-08T00:20:44.650Z,11.67
2017-09-08T00:23:16.419Z,15.50
2017-09-08T00:25:47.870Z,15.30
2017-09-08T00:28:19.865Z,15.93
2017-09-08T00:30:51.593Z,11.53
2017-09-08T00:33:23.417Z,7.30
2017-09-08T00:35:55.137Z,19.87
2017-09-08T00:38:26.747Z,12.00
2017-09-08T00:40:58.816Z,11.00
2017-09-08T00:43:30.897Z,11.97
2017-09-08T00:46:02.657Z,11.30
2017-09-08T00:48:34.621Z,11.33
2017-09-08T00:51:06.489Z,9.63
2017-09-08T00:53:38.515Z,13.53
2017-09-08T00:56:11.920Z,9.63
2017-09-08T00:58:43.595Z,16.53
2017-09-08T01:01:16.773Z,15.33
2017-09-08T01:03:48.456Z,7.90
2017-09-08T01:06:19.742Z,11.80
2017-09-08T01:08:51.417Z,12.70
2017-09-08T01:11:23.123Z,11.03
2017-09-08T01:13:55.030Z,14.33
2017-09-08T01:16:26.766Z,10.10
2017-09-08T01:18:58.637Z,13.10
2017-09-08T01:21:30.608Z,10.40
2017-09-08T01:24:04.120Z,11.77
2017-09-08T01:26:36.100Z,8.27
2017-09-08T01:29:08.514Z,9.10
2017-09-08T01:31:40.920Z,7.50
2017-09-08T01:34:12.764Z,6.50
2017-09-08T01:36:44.482Z,9.17
2017-09-08T01:39:17.505Z,9.70
2017-09-08T01:41:49.070Z,9.80
2017-09-08T01:44:21.000Z,11.40
2017-09-08T01:46:52.641Z,9.57
2017-09-08T01:49:24.473Z,13.73
2017-09-08T01:51:56.014Z,6.70
2017-09-08T01:54:27.897Z,8.20
2017-09-08T01:56:59.170Z,6.07
2017-09-08T01:59:30.838Z,9.17
2017-09-08T02:02:02.571Z,9.20
2017-09-08T02:04:34.290Z,7.90
2017-09-08T02:07:06.262Z,9.60
2017-09-08T02:09:37.953Z,8.50
2017-09-08T02:12:11.512Z,9.97
2017-09-08T02:14:45.015Z,6.10
2017-09-08T02:17:18.131Z,7.83
2017-09-08T02:19:50.085Z,6.23
2017-09-08T02:22:21.626Z,10.33
2017-09-08T02:24:53.363Z,7.30
2017-09-08T02:27:25.474Z,8.57
2017-09-08T02:29:57.471Z,11.53
2017-09-08T02:32:29.490Z,12.47
2017-09-08T02:35:01.248Z,6.00
2017-09-08T02:37:32.933Z,10.37
2017-09-08T02:40:04.711Z,6.60
2017-09-08T02:42:37.019Z,5.43
2017-09-08T02:45:11.369Z,8.70
2017-09-08T02:47:43.238Z,7.20
2017-09-08T02:50:18.113Z,8.47
2017-09-08T02:52:50.076Z,10.40
2017-09-08T02:55:21.566Z,9.80
2017-09-08T02:57:52.986Z,7.60
2017-09-08T03:00:24.613Z,11.43
2017-09-08T03:02:56.287Z,8.27
2017-09-08T03:05:27.955Z,8.80
2017-09-08T03:07:59.999Z,6.37
2017-09-08T03:10:31.644Z,7.37
2017-09-08T03:13:03.479Z,5.60
2017-09-08T03:15:35.528Z,7.60
2017-09-08T03:18:07.372Z,5.00
2017-09-08T03:20:39.585Z,3.93
2017-09-08T03:23:14.297Z,6.50
2017-09-08T03:25:46.020Z,6.53
2017-09-08T03:28:17.947Z,5.53
2017-09-08T03:30:49.698Z,7.23
2017-09-08T03:33:21.542Z,5.07
2017-09-08T03:35:53.355Z,7.17
2017-09-08T03:38:25.137Z,5.30
2017-09-08T03:40:57.321Z,9.30
2017-09-08T03:43:28.717Z,6.20
2017-09-08T03:46:00.517Z,5.70
2017-09-08T03:48:32.897Z,5.50
2017-09-08T03:51:04.640Z,5.40
2017-09-08T03:53:36.471Z,8.50
2017-09-08T03:56:07.752Z,6.97
2017-09-08T03:58:38.934Z,8.07
2017-09-08T04:01:13.305Z,5.83
2017-09-08T04:03:44.808Z,6.70
2017-09-08T04:06:17.269Z,7.87
2017-09-08T04:08:48.798Z,5.70
2017-09-08T04:11:20.623Z,8.50
2017-09-08T04:13:52.288Z,9.67
2017-09-08T04:16:23.971Z,10.07
2017-09-08T04:18:55.904Z,8.37
2017-09-08T04:21:27.601Z,8.43
2017-09-08T04:23:59.061Z,7.23
2017-09-08T04:26:30.647Z,8.03
2017-09-08T04:29:02.272Z,6.40
2017-09-08T04:31:34.779Z,9.40
2017-09-08T04:34:05.891Z,11.70
2017-09-08T04:36:37.398Z,8.30
2017-09-08T04:39:08.739Z,7.13
2017-09-08T04:41:41.732Z,7.63
2017-09-08T04:44:15.398Z,8.33
2017-09-08T04:46:47.317Z,8.97
2017-09-08T04:49:19.317Z,9.07
2017-09-08T04:51:50.886Z,9.07
2017-09-08T04:54:22.870Z,9.00
2017-09-08T04:56:54.498Z,4.73
2017-09-08T04:59:26.284Z,7.50
2017-09-08T05:01:58.034Z,10.13
2017-09-08T05:04:30.442Z,8.87
2017-09-08T05:07:02.754Z,8.63
2017-09-08T05:09:36.129Z,5.30
2017-09-08T05:12:07.506Z,7.47
2017-09-08T05:14:40.001Z,4.57
2017-09-08T05:17:11.741Z,5.23
2017-09-08T05:19:43.454Z,6.60
2017-09-08T05:22:18.138Z,5.47
2017-09-08T05:24:53.999Z,5.90
2017-09-08T05:27:25.096Z,3.67
2017-09-08T05:29:56.900Z,8.67
2017-09-08T05:32:29.562Z,6.83
2017-09-08T05:35:01.254Z,7.37
2017-09-08T05:37:34.003Z,5.63
2017-09-08T05:40:06.922Z,7.80
2017-09-08T05:42:38.220Z,6.10
2017-09-08T05:45:11.054Z,4.70
2017-09-08T05:47:42.549Z,5.20
2017-09-08T05:50:25.135Z,8.00
2017-09-08T05:52:56.861Z,7.87
2017-09-08T05:55:28.102Z,5.97
2017-09-08T05:57:59.099Z,4.73
2017-09-08T06:00:31.701Z,4.63
2017-09-08T06:03:02.825Z,6.27
2017-09-08T06:05:35.760Z,6.00
2017-09-08T06:08:08.442Z,6.80
2017-09-08T06:10:40.706Z,13.57
2017-09-08T06:13:13.750Z,9.40
2017-09-08T06:15:46.073Z,19.60
2017-09-08T06:18:17.903Z,18.60
2017-09-08T06:20:49.330Z,17.80
2017-09-08T06:23:20.681Z,37.00
2017-09-08T06:25:54.491Z,33.20
2017-09-08T06:28:25.671Z,28.80
2017-09-08T06:30:56.957Z,28.70
2017-09-08T06:33:30.589Z,41.13
2017-09-08T06:36:03.507Z,38.23
2017-09-08T06:38:35.009Z,32.40
2017-09-08T06:41:07.103Z,32.43
2017-09-08T06:43:38.423Z,41.77
2017-09-08T06:46:14.638Z,37.00
2017-09-08T06:48:46.483Z,35.33
2017-09-08T06:51:19.608Z,35.87
2017-09-08T06:53:51.738Z,31.20
2017-09-08T06:56:23.252Z,36.17
2017-09-08T06:58:56.163Z,29.00
2017-09-08T07:01:28.080Z,33.37
2017-09-08T07:04:00.062Z,34.67
2017-09-08T07:06:31.682Z,28.63
2017-09-08T07:09:03.104Z,31.23
2017-09-08T07:11:34.854Z,35.17
2017-09-08T07:14:10.914Z,31.40
2017-09-08T07:16:43.466Z,24.90
2017-09-08T07:19:23.309Z,22.77
2017-09-08T07:21:57.094Z,26.50
2017-09-08T07:24:31.336Z,30.23
2017-09-08T07:27:08.737Z,27.80
2017-09-08T07:29:45.103Z,32.63
2017-09-08T07:32:17.484Z,28.13
2017-09-08T07:34:49.819Z,21.73
2017-09-08T07:37:21.572Z,24.47
2017-09-08T07:39:53.319Z,26.00
2017-09-08T07:42:27.991Z,26.30
2017-09-08T07:45:00.892Z,38.13
2017-09-08T07:47:36.890Z,26.10
2017-09-08T07:50:08.126Z,24.73
2017-09-08T07:52:39.950Z,19.30
2017-09-08T07:55:14.597Z,21.27
2017-09-08T07:57:46.880Z,21.97
2017-09-08T08:00:18.804Z,25.73
2017-09-08T08:02:50.793Z,28.47
2017-09-08T08:05:22.446Z,19.33
2017-09-08T08:07:53.767Z,20.73
2017-09-08T08:10:25.340Z,18.23
2017-09-08T08:12:56.455Z,20.47
2017-09-08T08:15:28.362Z,23.50
2017-09-08T08:17:59.637Z,15.70
2017-09-08T08:20:31.799Z,23.37
2017-09-08T08:23:04.066Z,22.90
2017-09-08T08:25:35.766Z,22.17
2017-09-08T08:28:07.414Z,20.20
2017-09-08T08:30:39.764Z,16.63
2017-09-08T08:33:12.538Z,24.23
2017-09-08T08:35:44.624Z,20.13
2017-09-08T08:38:18.111Z,17.83
2017-09-08T08:40:50.514Z,16.60
2017-09-08T08:43:25.281Z,19.30
2017-09-08T08:45:57.386Z,20.90
2017-09-08T08:48:30.875Z,14.90
2017-09-08T08:51:02.394Z,20.80
2017-09-08T08:53:34.072Z,17.93
2017-09-08T08:56:07.417Z,16.50
2017-09-08T08:58:38.666Z,21.87
2017-09-08T09:01:11.732Z,22.50
2017-09-08T09:03:43.310Z,16.20
2017-09-08T09:06:16.887Z,14.10
2017-09-08T09:08:51.278Z,15.50
2017-09-08T09:11:23.107Z,19.80
2017-09-08T09:13:55.145Z,14.00
2017-09-08T09:16:27.305Z,16.03
2017-09-08T09:18:59.043Z,16.10
2017-09-08T09:21:30.551Z,18.03
2017-09-08T09:24:02.597Z,13.90
2017-09-08T09:26:34.096Z,13.93
2017-09-08T09:29:05.593Z,17.47
2017-09-08T09:31:37.088Z,15.80
2017-09-08T09:34:08.316Z,18.30
2017-09-08T09:36:41.230Z,16.30
2017-09-08T09:39:15.249Z,12.93
2017-09-08T09:41:46.346Z,15.20
2017-09-08T09:44:18.406Z,16.30
2017-09-08T09:46:49.478Z,14.03
2017-09-08T09:49:21.234Z,15.30
2017-09-08T09:51:52.358Z,12.30
2017-09-08T09:54:23.836Z,14.70
2017-09-08T09:56:55.481Z,15.00
2017-09-08T09:59:26.626Z,15.67
2017-09-08T10:01:58.047Z,16.30
2017-09-08T10:04:29.996Z,11.20
2017-09-08T10:07:01.294Z,14.70
2017-09-08T10:09:33.818Z,10.07
2017-09-08T10:12:05.176Z,15.90
2017-09-08T10:14:40.168Z,13.23
2017-09-08T10:17:14.825Z,13.40
2017-09-08T10:19:46.510Z,11.60
2017-09-08T10:22:18.314Z,14.43
2017-09-08T10:24:49.504Z,13.60
2017-09-08T10:27:21.310Z,14.47
2017-09-08T10:29:53.297Z,9.77
2017-09-08T10:32:24.786Z,9.47
2017-09-08T10:34:59.667Z,13.40
2017-09-08T10:37:31.019Z,12.80
2017-09-08T10:40:03.884Z,12.30
2017-09-08T10:42:36.818Z,10.47
2017-09-08T10:45:11.853Z,9.63
2017-09-08T10:47:44.903Z,9.90
2017-09-08T10:50:20.038Z,11.13
2017-09-08T10:52:51.920Z,11.00
2017-09-08T10:55:23.095Z,12.30
2017-09-08T10:57:55.948Z,9.77
2017-09-08T11:00:27.066Z,11.13
2017-09-08T11:02:58.115Z,12.20
2017-09-08T11:05:29.828Z,10.87
2017-09-08T11:08:01.833Z,7.77
2017-09-08T11:10:33.003Z,10.40
2017-09-08T11:13:04.252Z,10.43
2017-09-08T11:15:37.580Z,11.50
2017-09-08T11:18:11.144Z,11.30
2017-09-08T11:20:42.973Z,9.83
2017-09-08T11:23:15.007Z,10.77
2017-09-08T11:25:47.622Z,11.83
2017-09-08T11:28:19.745Z,11.97
2017-09-08T11:30:51.767Z,9.33
2017-09-08T11:33:28.542Z,8.33
2017-09-08T11:38:07.604Z,11.13
2017-09-08T11:40:39.034Z,10.97
2017-09-08T11:43:10.728Z,12.07
2017-09-08T11:45:42.037Z,9.53
2017-09-08T11:48:13.918Z,7.60
2017-09-08T11:50:45.168Z,7.10
2017-09-08T11:53:18.724Z,6.83
2017-09-08T11:55:50.906Z,8.43
2017-09-08T11:58:23.228Z,8.37
2017-09-08T12:00:55.010Z,9.40
2017-09-08T12:03:26.652Z,7.23
2017-09-08T12:06:07.906Z,5.93
2017-09-08T12:08:41.657Z,10.90
2017-09-08T12:11:15.136Z,11.13
2017-09-08T12:13:49.661Z,11.93
2017-09-08T12:16:21.630Z,6.57
2017-09-08T12:18:53.636Z,8.57
2017-09-08T12:21:26.730Z,7.23
2017-09-08T12:23:58.794Z,10.03
2017-09-08T12:26:32.647Z,4.23
2017-09-08T12:29:06.136Z,6.40
2017-09-08T12:31:37.616Z,5.23
2017-09-08T12:34:09.775Z,7.47
2017-09-08T12:36:42.448Z,7.93
2017-09-08T12:39:17.038Z,7.20
2017-09-08T12:41:52.239Z,6.13
2017-09-08T12:44:23.835Z,5.60
2017-09-08T12:46:55.274Z,9.70
2017-09-08T12:49:28.581Z,6.50
2017-09-08T12:52:01.009Z,6.20
2017-09-08T12:54:35.072Z,6.93
2017-09-08T12:57:08.289Z,7.23
2017-09-08T12:59:41.185Z,4.90
2017-09-08T13:02:16.911Z,5.70
2017-09-08T13:04:53.084Z,8.43
2017-09-08T13:07:25.191Z,5.43
2017-09-08T13:09:56.297Z,4.07
2017-09-08T13:12:28.154Z,6.00
2017-09-08T13:14:59.221Z,6.20
2017-09-08T13:17:31.547Z,6.20
2017-09-08T13:20:03.274Z,6.37
2017-09-08T13:22:34.410Z,7.70
2017-09-08T13:25:05.071Z,6.77
2017-09-08T13:27:36.554Z,5.57
2017-09-08T13:30:16.662Z,4.63
2017-09-08T13:32:55.887Z,6.73
2017-09-08T13:35:28.174Z,4.37
2017-09-08T13:38:00.578Z,3.93
2017-09-08T13:40:35.580Z,8.60
2017-09-08T13:45:53.122Z,6.27
2017-09-08T13:48:24.854Z,3.87
2017-09-08T13:50:57.280Z,5.03
2017-09-08T13:53:29.197Z,7.33
2017-09-08T13:56:05.236Z,4.23
2017-09-08T13:58:50.856Z,4.80
2017-09-08T14:01:22.842Z,7.57
2017-09-08T14:03:54.831Z,6.90
2017-09-08T14:06:26.371Z,5.63
2017-09-08T14:08:59.072Z,6.00
2017-09-08T14:11:30.867Z,5.93
2017-09-08T14:14:02.847Z,4.30
2017-09-08T14:16:34.075Z,6.30
2017-09-08T14:19:06.124Z,4.60
2017-09-08T14:21:38.192Z,5.83
2017-09-08T14:24:09.741Z,4.03
2017-09-08T14:26:42.382Z,3.73
2017-09-08T14:29:14.557Z,3.80
2017-09-08T14:31:45.895Z,3.93
2017-09-08T14:34:18.318Z,4.80
2017-09-08T14:36:51.380Z,3.87
2017-09-08T14:39:25.086Z,3.50
2017-09-08T14:41:57.080Z,5.00
2017-09-08T14:44:28.429Z,3.90
2017-09-08T14:47:00.639Z,4.23
2017-09-08T14:49:32.415Z,3.03
2017-09-08T14:52:04.470Z,10.50
2017-09-08T14:54:35.982Z,6.03
2017-09-08T14:57:07.578Z,5.53
2017-09-08T14:59:39.755Z,5.10
2017-09-08T15:02:13.312Z,3.60
2017-09-08T15:04:45.014Z,5.60
2017-09-08T15:07:18.909Z,3.50
2017-09-08T15:09:51.675Z,4.13
2017-09-08T15:12:28.402Z,4.03
2017-09-08T15:15:01.089Z,4.90
2017-09-08T15:17:39.220Z,3.20
2017-09-08T15:20:16.272Z,2.87
2017-09-08T15:22:47.932Z,5.10
2017-09-08T15:25:23.955Z,4.70
2017-09-08T15:27:56.229Z,2.67
2017-09-08T15:30:28.365Z,3.60
2017-09-08T15:33:33.943Z,4.37
2017-09-08T15:36:23.852Z,4.80
2017-09-08T15:44:22.442Z,4.60
2017-09-08T15:47:15.305Z,5.03
2017-09-08T15:53:15.844Z,3.90
2017-09-08T15:55:49.095Z,4.80
2017-09-08T16:03:32.186Z,3.20
2017-09-08T16:06:04.488Z,3.47
2017-09-08T16:08:36.886Z,5.57
2017-09-08T16:11:08.409Z,4.00
2017-09-08T16:13:40.538Z,3.63
2017-09-08T16:16:14.791Z,3.20
2017-09-08T16:18:46.117Z,3.23
2017-09-08T16:21:17.530Z,3.10
2017-09-08T16:23:48.751Z,3.10
2017-09-08T16:26:21.735Z,2.80
2017-09-08T16:28:54.351Z,7.97
2017-09-08T16:31:27.481Z,2.87
2017-09-08T16:33:59.190Z,4.87
2017-09-08T16:36:31.783Z,2.93
2017-09-08T16:39:03.786Z,2.90
2017-09-08T16:41:35.073Z,6.17
2017-09-08T16:44:07.210Z,5.07
2017-09-08T16:46:39.660Z,4.30
2017-09-08T16:49:31.238Z,3.40
2017-09-08T16:52:57.636Z,3.10
2017-09-08T16:55:58.816Z,3.97
2017-09-08T16:58:43.431Z,3.87
2017-09-08T17:04:22.758Z,3.50
2017-09-08T17:14:38.011Z,3.23
2017-09-08T17:28:01.818Z,4.37
2017-09-08T18:20:14.085Z,5.53
2017-09-08T18:22:49.518Z,3.77
2017-09-08T18:25:20.991Z,3.00
2017-09-08T18:27:52.618Z,3.40
2017-09-08T18:30:23.809Z,3.03
2017-09-08T18:32:55.763Z,3.23
2017-09-08T18:35:27.921Z,2.70
2017-09-08T18:37:59.399Z,3.60
2017-09-08T18:40:30.597Z,4.00
2017-09-08T18:43:01.968Z,2.90
2017-09-08T18:45:34.977Z,3.97
2017-09-08T18:48:06.885Z,2.50
2017-09-08T18:50:38.208Z,4.20
2017-09-08T18:53:12.632Z,2.90
2017-09-08T18:55:44.630Z,5.87
2017-09-08T18:58:15.747Z,6.40
2017-09-08T19:00:47.160Z,3.47
2017-09-08T19:03:20.187Z,6.73
2017-09-08T19:05:51.346Z,3.53
2017-09-08T19:08:22.984Z,7.10
2017-09-08T19:10:55.160Z,3.43
2017-09-08T19:13:26.710Z,4.07
2017-09-08T19:15:59.118Z,2.80
2017-09-08T19:18:31.691Z,3.73
2017-09-08T19:21:03.303Z,6.13
2017-09-08T19:23:35.806Z,4.53
2017-09-08T19:26:07.600Z,2.90
2017-09-08T19:28:38.726Z,3.97
2017-09-08T19:31:09.857Z,5.40
2017-09-08T19:33:41.505Z,3.40
2017-09-08T19:36:15.947Z,4.50
2017-09-08T19:38:47.352Z,9.40
2017-09-08T19:41:19.393Z,2.67
2017-09-08T19:43:51.443Z,5.03
2017-09-08T19:46:24.207Z,3.50
2017-09-08T19:48:56.347Z,5.50
2017-09-08T19:51:27.955Z,6.20
2017-09-08T19:53:59.175Z,4.27
2017-09-08T19:56:30.653Z,3.37
2017-09-08T19:59:02.138Z,5.70
2017-09-08T20:01:33.369Z,4.37
2017-09-08T20:04:04.962Z,5.30
2017-09-08T20:06:37.136Z,4.83
2017-09-08T20:09:08.985Z,5.80
2017-09-08T20:11:40.641Z,4.70
2017-09-08T20:14:12.126Z,2.90
2017-09-08T20:16:44.089Z,3.53
2017-09-08T20:19:18.897Z,5.53
2017-09-08T20:21:51.463Z,3.90
2017-09-08T20:24:22.664Z,6.10
2017-09-08T20:26:54.645Z,2.73
2017-09-08T20:29:25.735Z,7.50
2017-09-08T20:31:57.080Z,3.73
2017-09-08T20:34:29.355Z,3.90
2017-09-08T20:37:00.746Z,4.10
2017-09-08T20:39:32.393Z,5.20
2017-09-08T20:42:04.565Z,5.40
2017-09-08T20:44:35.765Z,4.80
2017-09-08T20:47:07.089Z,4.67
2017-09-08T20:49:38.171Z,2.57
2017-09-08T20:52:09.354Z,2.70
2017-09-08T20:54:41.076Z,4.73
2017-09-08T20:57:14.983Z,7.53
2017-09-08T20:59:46.621Z,3.70
2017-09-08T21:02:18.061Z,3.70
2017-09-08T21:04:49.793Z,3.77
2017-09-08T21:07:21.787Z,3.70
2017-09-08T21:09:54.506Z,3.00
2017-09-08T21:12:28.312Z,4.93
2017-09-08T21:15:00.240Z,3.10
2017-09-08T21:17:31.696Z,5.07
2017-09-08T21:20:04.402Z,3.77
2017-09-08T21:22:35.857Z,3.60
2017-09-08T21:25:07.563Z,3.80
2017-09-08T21:27:39.052Z,4.37
2017-09-08T21:30:13.640Z,3.63
2017-09-08T21:32:44.807Z,2.47
2017-09-08T21:35:17.119Z,2.70
2017-09-08T21:37:48.969Z,3.57
2017-09-08T21:40:20.832Z,4.07
2017-09-08T21:42:52.384Z,3.20
2017-09-08T21:45:24.363Z,3.30
2017-09-08T21:47:55.557Z,2.73
2017-09-08T21:50:27.889Z,4.17
2017-09-08T21:52:59.938Z,5.20
2017-09-08T21:55:31.099Z,3.80
2017-09-08T21:58:03.538Z,2.63
2017-09-08T22:00:35.989Z,6.63
2017-09-08T22:05:47.051Z,6.33
2017-09-08T22:51:09.031Z,4.30
2017-09-08T22:53:41.069Z,5.80
2017-09-08T22:56:14.848Z,3.20
2017-09-08T22:58:46.210Z,5.77
2017-09-08T23:01:17.606Z,2.93
2017-09-08T23:03:48.746Z,3.17
2017-09-08T23:06:20.020Z,4.00
2017-09-08T23:08:51.561Z,6.07
2017-09-08T23:11:22.763Z,4.80
2017-09-08T23:13:53.953Z,4.43
2017-09-08T23:16:25.691Z,4.17
2017-09-08T23:18:56.990Z,3.90
2017-09-08T23:21:28.646Z,3.00
2017-09-08T23:24:00.458Z,2.83
2017-09-08T23:26:32.545Z,6.87
2017-09-08T23:29:04.131Z,2.60
2017-09-08T23:31:35.879Z,5.93
2017-09-08T23:34:07.440Z,5.00
2017-09-08T23:36:39.226Z,3.33
2017-09-08T23:39:13.877Z,4.97
2017-09-08T23:41:45.497Z,3.33
2017-09-08T23:44:17.156Z,4.43
2017-09-08T23:46:49.268Z,3.10
2017-09-08T23:49:21.775Z,4.40
2017-09-08T23:51:54.042Z,4.07
2017-09-08T23:54:25.834Z,4.10
2017-09-08T23:56:57.323Z,4.20
2017-09-08T23:59:29.154Z,4.67
